sensor_id;sensor_type;location;lat;lon;timestamp;P1;durP1;ratioP1;P2;durP2;ratioP2
4595;SDS011;2310;49.978;8.742;2023-05-25T00:01:54;7.83;;;5.30;;
4595;SDS011;2310;49.978;8.742;2023-05-25T00:05:55;10.80;;;4.40;;
4595;SDS011;2310;49.978;8.742;2023-05-25T00:09:57;11.57;;;5.20;;
4595;SDS011;2310;49.978;8.742;2023-05-25T00:13:59;8.13;;;4.37;;
4595;SDS011;2310;49.978;8.742;2023-05-25T00:18:00;7.13;;;4.40;;
4595;SDS011;2310;49.978;8.742;2023-05-25T00:22:01;10.63;;;5.10;;
4595;SDS011;2310;49.978;8.742;2023-05-25T00:26:03;8.50;;;5.27;;
4595;SDS011;2310;49.978;8.742;2023-05-25T00:30:05;8.10;;;4.73;;
4595;SDS011;2310;49.978;8.742;2023-05-25T00:34:07;9.10;;;5.57;;
4595;SDS011;2310;49.978;8.742;2023-05-25T00:38:12;13.80;;;5.47;;
4595;SDS011;2310;49.978;8.742;2023-05-25T00:42:14;7.53;;;4.50;;
4595;SDS011;2310;49.978;8.742;2023-05-25T00:46:15;9.17;;;5.20;;
4595;SDS011;2310;49.978;8.742;2023-05-25T00:50:17;10.13;;;5.17;;
4595;SDS011;2310;49.978;8.742;2023-05-25T00:54:22;8.77;;;5.33;;
4595;SDS011;2310;49.978;8.742;2023-05-25T00:58:24;7.10;;;4.87;;
4595;SDS011;2310;49.978;8.742;2023-05-25T01:02:28;10.40;;;5.93;;
4595;SDS011;2310;49.978;8.742;2023-05-25T01:06:30;10.63;;;5.83;;
4595;SDS011;2310;49.978;8.742;2023-05-25T01:10:33;7.73;;;6.03;;
4595;SDS011;2310;49.978;8.742;2023-05-25T01:14:38;8.43;;;6.17;;
4595;SDS011;2310;49.978;8.742;2023-05-25T01:18:40;11.47;;;6.00;;
4595;SDS011;2310;49.978;8.742;2023-05-25T01:22:42;10.47;;;5.40;;
4595;SDS011;2310;49.978;8.742;2023-05-25T01:26:53;19.43;;;6.03;;
4595;SDS011;2310;49.978;8.742;2023-05-25T01:30:55;10.30;;;6.37;;
4595;SDS011;2310;49.978;8.742;2023-05-25T01:34:58;12.90;;;6.30;;
4595;SDS011;2310;49.978;8.742;2023-05-25T01:39:00;10.63;;;5.80;;
4595;SDS011;2310;49.978;8.742;2023-05-25T01:43:02;11.50;;;6.43;;
4595;SDS011;2310;49.978;8.742;2023-05-25T01:47:12;12.30;;;6.57;;
4595;SDS011;2310;49.978;8.742;2023-05-25T01:55:50;10.20;;;5.63;;
4595;SDS011;2310;49.978;8.742;2023-05-25T01:59:51;7.30;;;5.73;;
4595;SDS011;2310;49.978;8.742;2023-05-25T02:03:57;13.47;;;6.03;;
4595;SDS011;2310;49.978;8.742;2023-05-25T02:07:59;8.80;;;6.60;;
4595;SDS011;2310;49.978;8.742;2023-05-25T02:12:01;11.10;;;6.30;;
4595;SDS011;2310;49.978;8.742;2023-05-25T02:16:03;9.03;;;6.43;;
4595;SDS011;2310;49.978;8.742;2023-05-25T02:20:05;7.70;;;5.80;;
4595;SDS011;2310;49.978;8.742;2023-05-25T02:24:08;11.30;;;6.07;;
4595;SDS011;2310;49.978;8.742;2023-05-25T02:28:09;11.50;;;7.07;;
4595;SDS011;2310;49.978;8.742;2023-05-25T02:32:11;11.17;;;6.60;;
4595;SDS011;2310;49.978;8.742;2023-05-25T02:36:12;10.33;;;6.50;;
4595;SDS011;2310;49.978;8.742;2023-05-25T02:40:13;10.27;;;6.67;;
4595;SDS011;2310;49.978;8.742;2023-05-25T02:44:15;12.33;;;7.07;;
4595;SDS011;2310;49.978;8.742;2023-05-25T02:48:16;13.00;;;6.37;;
4595;SDS011;2310;49.978;8.742;2023-05-25T02:52:17;11.37;;;7.13;;
4595;SDS011;2310;49.978;8.742;2023-05-25T02:56:18;13.03;;;7.30;;
4595;SDS011;2310;49.978;8.742;2023-05-25T03:00:19;9.07;;;6.23;;
4595;SDS011;2310;49.978;8.742;2023-05-25T03:04:21;10.50;;;6.87;;
4595;SDS011;2310;49.978;8.742;2023-05-25T03:08:22;13.60;;;7.70;;
4595;SDS011;2310;49.978;8.742;2023-05-25T03:12:24;12.87;;;7.17;;
4595;SDS011;2310;49.978;8.742;2023-05-25T03:16:25;13.77;;;5.80;;
4595;SDS011;2310;49.978;8.742;2023-05-25T03:20:26;8.60;;;6.77;;
4595;SDS011;2310;49.978;8.742;2023-05-25T03:24:28;13.17;;;7.57;;
4595;SDS011;2310;49.978;8.742;2023-05-25T03:28:29;14.60;;;7.73;;
4595;SDS011;2310;49.978;8.742;2023-05-25T03:32:30;12.80;;;7.50;;
4595;SDS011;2310;49.978;8.742;2023-05-25T03:36:32;13.73;;;7.73;;
4595;SDS011;2310;49.978;8.742;2023-05-25T03:40:33;10.37;;;7.57;;
4595;SDS011;2310;49.978;8.742;2023-05-25T03:44:35;13.33;;;8.50;;
4595;SDS011;2310;49.978;8.742;2023-05-25T03:48:36;12.57;;;8.40;;
4595;SDS011;2310;49.978;8.742;2023-05-25T03:52:38;16.50;;;8.50;;
4595;SDS011;2310;49.978;8.742;2023-05-25T03:56:39;11.90;;;9.17;;
4595;SDS011;2310;49.978;8.742;2023-05-25T04:00:40;19.40;;;9.37;;
4595;SDS011;2310;49.978;8.742;2023-05-25T04:04:42;16.93;;;9.20;;
4595;SDS011;2310;49.978;8.742;2023-05-25T04:08:44;11.90;;;8.40;;
4595;SDS011;2310;49.978;8.742;2023-05-25T04:12:45;12.30;;;7.37;;
4595;SDS011;2310;49.978;8.742;2023-05-25T04:16:46;11.70;;;7.17;;
4595;SDS011;2310;49.978;8.742;2023-05-25T04:20:48;16.63;;;8.33;;
4595;SDS011;2310;49.978;8.742;2023-05-25T04:24:49;16.40;;;9.37;;
4595;SDS011;2310;49.978;8.742;2023-05-25T04:28:50;12.10;;;8.73;;
4595;SDS011;2310;49.978;8.742;2023-05-25T04:32:54;10.60;;;7.80;;
4595;SDS011;2310;49.978;8.742;2023-05-25T04:36:57;12.90;;;7.90;;
4595;SDS011;2310;49.978;8.742;2023-05-25T04:40:58;11.10;;;7.83;;
4595;SDS011;2310;49.978;8.742;2023-05-25T04:45:01;12.67;;;8.00;;
4595;SDS011;2310;49.978;8.742;2023-05-25T04:49:03;10.67;;;7.80;;
4595;SDS011;2310;49.978;8.742;2023-05-25T04:53:08;11.73;;;8.00;;
4595;SDS011;2310;49.978;8.742;2023-05-25T04:57:10;12.27;;;7.13;;
4595;SDS011;2310;49.978;8.742;2023-05-25T05:01:11;9.40;;;7.57;;
4595;SDS011;2310;49.978;8.742;2023-05-25T05:05:12;13.20;;;9.03;;
4595;SDS011;2310;49.978;8.742;2023-05-25T05:09:13;12.60;;;7.80;;
4595;SDS011;2310;49.978;8.742;2023-05-25T05:13:17;12.70;;;8.50;;
4595;SDS011;2310;49.978;8.742;2023-05-25T05:17:18;11.87;;;7.03;;
4595;SDS011;2310;49.978;8.742;2023-05-25T05:21:19;14.27;;;8.47;;
4595;SDS011;2310;49.978;8.742;2023-05-25T05:25:22;12.03;;;8.17;;
4595;SDS011;2310;49.978;8.742;2023-05-25T05:29:23;15.20;;;8.60;;
4595;SDS011;2310;49.978;8.742;2023-05-25T05:33:24;11.60;;;8.00;;
4595;SDS011;2310;49.978;8.742;2023-05-25T05:37:26;11.00;;;7.17;;
4595;SDS011;2310;49.978;8.742;2023-05-25T05:41:27;11.83;;;8.30;;
4595;SDS011;2310;49.978;8.742;2023-05-25T05:45:28;13.40;;;8.37;;
4595;SDS011;2310;49.978;8.742;2023-05-25T05:49:30;10.97;;;7.63;;
4595;SDS011;2310;49.978;8.742;2023-05-25T05:53:31;11.90;;;7.40;;
4595;SDS011;2310;49.978;8.742;2023-05-25T05:57:34;11.70;;;8.00;;
4595;SDS011;2310;49.978;8.742;2023-05-25T06:01:36;12.23;;;7.30;;
4595;SDS011;2310;49.978;8.742;2023-05-25T06:05:37;19.30;;;8.00;;
4595;SDS011;2310;49.978;8.742;2023-05-25T06:09:39;11.13;;;6.90;;
4595;SDS011;2310;49.978;8.742;2023-05-25T06:13:40;9.80;;;7.20;;
4595;SDS011;2310;49.978;8.742;2023-05-25T06:17:41;10.23;;;6.87;;
4595;SDS011;2310;49.978;8.742;2023-05-25T06:21:43;15.47;;;6.80;;
4595;SDS011;2310;49.978;8.742;2023-05-25T06:25:44;11.40;;;7.60;;
4595;SDS011;2310;49.978;8.742;2023-05-25T06:29:47;10.50;;;7.30;;
4595;SDS011;2310;49.978;8.742;2023-05-25T06:33:48;12.10;;;6.27;;
4595;SDS011;2310;49.978;8.742;2023-05-25T06:37:49;11.37;;;6.77;;
4595;SDS011;2310;49.978;8.742;2023-05-25T06:41:50;14.93;;;6.97;;
4595;SDS011;2310;49.978;8.742;2023-05-25T06:45:51;11.40;;;7.00;;
4595;SDS011;2310;49.978;8.742;2023-05-25T06:49:53;11.07;;;7.50;;
4595;SDS011;2310;49.978;8.742;2023-05-25T06:53:54;10.30;;;6.73;;
4595;SDS011;2310;49.978;8.742;2023-05-25T06:57:56;11.83;;;6.67;;
4595;SDS011;2310;49.978;8.742;2023-05-25T07:01:58;12.33;;;7.47;;
4595;SDS011;2310;49.978;8.742;2023-05-25T07:06:00;12.27;;;7.33;;
4595;SDS011;2310;49.978;8.742;2023-05-25T07:10:02;12.77;;;7.77;;
4595;SDS011;2310;49.978;8.742;2023-05-25T07:14:04;12.60;;;8.20;;
4595;SDS011;2310;49.978;8.742;2023-05-25T07:18:05;13.60;;;8.90;;
4595;SDS011;2310;49.978;8.742;2023-05-25T07:22:06;15.90;;;9.43;;
4595;SDS011;2310;49.978;8.742;2023-05-25T07:26:07;12.43;;;9.37;;
4595;SDS011;2310;49.978;8.742;2023-05-25T07:30:11;12.80;;;8.37;;
4595;SDS011;2310;49.978;8.742;2023-05-25T07:34:12;11.57;;;7.90;;
4595;SDS011;2310;49.978;8.742;2023-05-25T07:38:14;12.33;;;7.63;;
4595;SDS011;2310;49.978;8.742;2023-05-25T07:42:15;12.13;;;7.67;;
4595;SDS011;2310;49.978;8.742;2023-05-25T07:46:19;14.30;;;8.60;;
4595;SDS011;2310;49.978;8.742;2023-05-25T07:50:22;10.80;;;7.30;;
4595;SDS011;2310;49.978;8.742;2023-05-25T07:54:23;9.57;;;7.33;;
4595;SDS011;2310;49.978;8.742;2023-05-25T07:58:27;8.13;;;5.53;;
4595;SDS011;2310;49.978;8.742;2023-05-25T08:02:28;9.47;;;6.43;;
4595;SDS011;2310;49.978;8.742;2023-05-25T08:06:29;9.07;;;6.60;;
4595;SDS011;2310;49.978;8.742;2023-05-25T08:10:32;9.27;;;5.90;;
4595;SDS011;2310;49.978;8.742;2023-05-25T08:14:33;12.33;;;6.87;;
4595;SDS011;2310;49.978;8.742;2023-05-25T08:18:35;12.03;;;7.50;;
4595;SDS011;2310;49.978;8.742;2023-05-25T08:22:36;9.17;;;6.90;;
4595;SDS011;2310;49.978;8.742;2023-05-25T08:26:38;9.40;;;5.90;;
4595;SDS011;2310;49.978;8.742;2023-05-25T08:30:43;7.23;;;6.07;;
4595;SDS011;2310;49.978;8.742;2023-05-25T08:34:45;8.80;;;5.43;;
4595;SDS011;2310;49.978;8.742;2023-05-25T08:38:46;10.77;;;6.17;;
4595;SDS011;2310;49.978;8.742;2023-05-25T08:42:48;7.73;;;5.17;;
4595;SDS011;2310;49.978;8.742;2023-05-25T08:46:49;7.90;;;5.00;;
4595;SDS011;2310;49.978;8.742;2023-05-25T08:50:51;7.00;;;5.97;;
4595;SDS011;2310;49.978;8.742;2023-05-25T08:54:53;7.70;;;4.63;;
4595;SDS011;2310;49.978;8.742;2023-05-25T08:59:00;6.63;;;5.53;;
4595;SDS011;2310;49.978;8.742;2023-05-25T09:07:17;9.17;;;5.37;;
4595;SDS011;2310;49.978;8.742;2023-05-25T09:11:19;7.60;;;5.50;;
4595;SDS011;2310;49.978;8.742;2023-05-25T09:34:00;7.57;;;5.37;;
4595;SDS011;2310;49.978;8.742;2023-05-25T09:38:01;6.13;;;5.07;;
4595;SDS011;2310;49.978;8.742;2023-05-25T09:42:03;7.20;;;5.27;;
4595;SDS011;2310;49.978;8.742;2023-05-25T09:46:05;10.00;;;6.07;;
4595;SDS011;2310;49.978;8.742;2023-05-25T09:50:07;9.37;;;5.07;;
4595;SDS011;2310;49.978;8.742;2023-05-25T09:54:09;8.67;;;6.30;;
4595;SDS011;2310;49.978;8.742;2023-05-25T09:58:11;7.60;;;4.80;;
4595;SDS011;2310;49.978;8.742;2023-05-25T10:02:13;11.43;;;6.13;;
4595;SDS011;2310;49.978;8.742;2023-05-25T10:06:20;8.47;;;5.93;;
4595;SDS011;2310;49.978;8.742;2023-05-25T10:10:18;8.43;;;5.80;;
4595;SDS011;2310;49.978;8.742;2023-05-25T10:14:21;8.17;;;5.00;;
4595;SDS011;2310;49.978;8.742;2023-05-25T10:18:27;9.70;;;5.57;;
4595;SDS011;2310;49.978;8.742;2023-05-25T10:22:30;7.53;;;5.03;;
4595;SDS011;2310;49.978;8.742;2023-05-25T10:26:47;6.43;;;5.40;;
4595;SDS011;2310;49.978;8.742;2023-05-25T10:30:51;8.97;;;6.30;;
4595;SDS011;2310;49.978;8.742;2023-05-25T10:34:55;9.17;;;8.27;;
4595;SDS011;2310;49.978;8.742;2023-05-25T10:38:57;9.00;;;8.10;;
4595;SDS011;2310;49.978;8.742;2023-05-25T10:42:58;10.17;;;8.20;;
4595;SDS011;2310;49.978;8.742;2023-05-25T10:47:00;9.30;;;7.20;;
4595;SDS011;2310;49.978;8.742;2023-05-25T10:51:02;17.97;;;16.07;;
4595;SDS011;2310;49.978;8.742;2023-05-25T10:55:04;9.70;;;6.37;;
4595;SDS011;2310;49.978;8.742;2023-05-25T10:59:06;9.83;;;6.17;;
4595;SDS011;2310;49.978;8.742;2023-05-25T11:03:11;6.90;;;5.53;;
4595;SDS011;2310;49.978;8.742;2023-05-25T11:07:13;10.83;;;6.60;;
4595;SDS011;2310;49.978;8.742;2023-05-25T11:11:16;8.60;;;6.00;;
4595;SDS011;2310;49.978;8.742;2023-05-25T11:15:18;6.27;;;4.80;;
4595;SDS011;2310;49.978;8.742;2023-05-25T11:19:21;5.23;;;3.63;;
4595;SDS011;2310;49.978;8.742;2023-05-25T11:23:22;6.23;;;4.20;;
4595;SDS011;2310;49.978;8.742;2023-05-25T11:27:24;6.63;;;4.60;;
4595;SDS011;2310;49.978;8.742;2023-05-25T11:31:28;6.40;;;3.93;;
4595;SDS011;2310;49.978;8.742;2023-05-25T11:35:31;8.80;;;4.93;;
4595;SDS011;2310;49.978;8.742;2023-05-25T11:39:38;6.60;;;4.30;;
4595;SDS011;2310;49.978;8.742;2023-05-25T11:43:40;5.80;;;4.27;;
4595;SDS011;2310;49.978;8.742;2023-05-25T11:47:42;6.00;;;4.57;;
4595;SDS011;2310;49.978;8.742;2023-05-25T11:51:44;6.70;;;4.00;;
4595;SDS011;2310;49.978;8.742;2023-05-25T11:55:47;6.33;;;4.20;;
4595;SDS011;2310;49.978;8.742;2023-05-25T11:59:53;6.07;;;4.30;;
4595;SDS011;2310;49.978;8.742;2023-05-25T12:03:57;6.23;;;4.50;;
4595;SDS011;2310;49.978;8.742;2023-05-25T12:07:58;8.00;;;4.97;;
4595;SDS011;2310;49.978;8.742;2023-05-25T12:11:59;6.37;;;5.27;;
4595;SDS011;2310;49.978;8.742;2023-05-25T12:16:03;6.60;;;4.70;;
4595;SDS011;2310;49.978;8.742;2023-05-25T12:20:05;6.73;;;4.47;;
4595;SDS011;2310;49.978;8.742;2023-05-25T12:24:08;6.60;;;5.10;;
4595;SDS011;2310;49.978;8.742;2023-05-25T12:28:12;7.63;;;4.93;;
4595;SDS011;2310;49.978;8.742;2023-05-25T12:32:16;8.53;;;5.63;;
4595;SDS011;2310;49.978;8.742;2023-05-25T12:36:20;6.27;;;4.67;;
4595;SDS011;2310;49.978;8.742;2023-05-25T12:40:23;8.73;;;5.60;;
4595;SDS011;2310;49.978;8.742;2023-05-25T12:48:37;7.20;;;4.90;;
4595;SDS011;2310;49.978;8.742;2023-05-25T12:52:39;5.90;;;5.00;;
4595;SDS011;2310;49.978;8.742;2023-05-25T12:56:55;6.10;;;5.50;;
4595;SDS011;2310;49.978;8.742;2023-05-25T13:00:56;7.43;;;6.17;;
4595;SDS011;2310;49.978;8.742;2023-05-25T13:04:58;7.93;;;6.20;;
4595;SDS011;2310;49.978;8.742;2023-05-25T13:08:59;10.00;;;5.77;;
4595;SDS011;2310;49.978;8.742;2023-05-25T13:13:01;7.27;;;5.43;;
4595;SDS011;2310;49.978;8.742;2023-05-25T13:17:03;6.73;;;5.27;;
4595;SDS011;2310;49.978;8.742;2023-05-25T13:21:05;8.10;;;5.70;;
4595;SDS011;2310;49.978;8.742;2023-05-25T13:25:09;6.37;;;5.23;;
4595;SDS011;2310;49.978;8.742;2023-05-25T13:29:11;8.00;;;6.03;;
4595;SDS011;2310;49.978;8.742;2023-05-25T13:33:12;10.20;;;5.43;;
4595;SDS011;2310;49.978;8.742;2023-05-25T13:37:14;7.63;;;6.20;;
4595;SDS011;2310;49.978;8.742;2023-05-25T13:41:15;9.50;;;6.50;;
4595;SDS011;2310;49.978;8.742;2023-05-25T13:45:19;11.63;;;6.80;;
4595;SDS011;2310;49.978;8.742;2023-05-25T13:49:21;12.50;;;6.30;;
4595;SDS011;2310;49.978;8.742;2023-05-25T13:53:26;9.70;;;5.40;;
4595;SDS011;2310;49.978;8.742;2023-05-25T13:57:27;7.70;;;5.93;;
4595;SDS011;2310;49.978;8.742;2023-05-25T14:01:28;9.17;;;6.90;;
4595;SDS011;2310;49.978;8.742;2023-05-25T14:05:30;9.37;;;6.87;;
4595;SDS011;2310;49.978;8.742;2023-05-25T14:09:31;8.60;;;6.07;;
4595;SDS011;2310;49.978;8.742;2023-05-25T14:13:33;7.73;;;6.13;;
4595;SDS011;2310;49.978;8.742;2023-05-25T14:17:36;10.63;;;7.30;;
4595;SDS011;2310;49.978;8.742;2023-05-25T14:21:37;11.00;;;7.30;;
4595;SDS011;2310;49.978;8.742;2023-05-25T14:25:38;9.13;;;7.30;;
4595;SDS011;2310;49.978;8.742;2023-05-25T14:29:40;8.80;;;6.43;;
4595;SDS011;2310;49.978;8.742;2023-05-25T14:33:41;9.23;;;6.40;;
4595;SDS011;2310;49.978;8.742;2023-05-25T14:37:43;8.23;;;7.20;;
4595;SDS011;2310;49.978;8.742;2023-05-25T14:41:47;7.33;;;6.30;;
4595;SDS011;2310;49.978;8.742;2023-05-25T14:45:48;12.03;;;10.77;;
4595;SDS011;2310;49.978;8.742;2023-05-25T14:49:50;11.63;;;7.63;;
4595;SDS011;2310;49.978;8.742;2023-05-25T14:53:51;10.23;;;6.77;;
4595;SDS011;2310;49.978;8.742;2023-05-25T14:57:54;9.63;;;7.63;;
4595;SDS011;2310;49.978;8.742;2023-05-25T15:01:56;8.07;;;5.80;;
4595;SDS011;2310;49.978;8.742;2023-05-25T15:05:57;10.03;;;7.87;;
4595;SDS011;2310;49.978;8.742;2023-05-25T15:09:59;9.93;;;8.40;;
4595;SDS011;2310;49.978;8.742;2023-05-25T15:14:01;10.80;;;7.97;;
4595;SDS011;2310;49.978;8.742;2023-05-25T15:18:02;10.23;;;7.00;;
4595;SDS011;2310;49.978;8.742;2023-05-25T15:22:04;10.80;;;8.07;;
4595;SDS011;2310;49.978;8.742;2023-05-25T15:26:05;13.93;;;8.40;;
4595;SDS011;2310;49.978;8.742;2023-05-25T15:30:08;9.23;;;7.37;;
4595;SDS011;2310;49.978;8.742;2023-05-25T15:34:09;14.20;;;8.80;;
4595;SDS011;2310;49.978;8.742;2023-05-25T15:38:10;11.07;;;8.43;;
4595;SDS011;2310;49.978;8.742;2023-05-25T15:42:12;12.30;;;8.83;;
4595;SDS011;2310;49.978;8.742;2023-05-25T15:46:15;10.90;;;7.73;;
4595;SDS011;2310;49.978;8.742;2023-05-25T15:50:17;10.53;;;7.60;;
4595;SDS011;2310;49.978;8.742;2023-05-25T15:54:18;10.13;;;8.13;;
4595;SDS011;2310;49.978;8.742;2023-05-25T15:58:19;9.67;;;8.67;;
4595;SDS011;2310;49.978;8.742;2023-05-25T16:02:21;10.00;;;8.47;;
4595;SDS011;2310;49.978;8.742;2023-05-25T16:06:22;11.03;;;8.87;;
4595;SDS011;2310;49.978;8.742;2023-05-25T16:10:24;9.43;;;7.93;;
4595;SDS011;2310;49.978;8.742;2023-05-25T16:14:25;10.73;;;9.57;;
4595;SDS011;2310;49.978;8.742;2023-05-25T16:18:26;10.40;;;8.10;;
4595;SDS011;2310;49.978;8.742;2023-05-25T16:22:27;10.53;;;8.10;;
4595;SDS011;2310;49.978;8.742;2023-05-25T16:26:29;12.53;;;8.77;;
4595;SDS011;2310;49.978;8.742;2023-05-25T16:30:30;10.20;;;9.10;;
4595;SDS011;2310;49.978;8.742;2023-05-25T16:34:31;12.77;;;8.03;;
4595;SDS011;2310;49.978;8.742;2023-05-25T16:38:33;11.37;;;8.07;;
4595;SDS011;2310;49.978;8.742;2023-05-25T16:42:34;9.93;;;7.70;;
4595;SDS011;2310;49.978;8.742;2023-05-25T16:46:36;9.97;;;7.30;;
4595;SDS011;2310;49.978;8.742;2023-05-25T16:50:37;9.60;;;7.47;;
4595;SDS011;2310;49.978;8.742;2023-05-25T16:54:38;12.37;;;7.33;;
4595;SDS011;2310;49.978;8.742;2023-05-25T16:58:40;12.67;;;7.33;;
4595;SDS011;2310;49.978;8.742;2023-05-25T17:02:41;9.80;;;8.17;;
4595;SDS011;2310;49.978;8.742;2023-05-25T17:06:42;10.30;;;8.03;;
4595;SDS011;2310;49.978;8.742;2023-05-25T17:10:45;13.73;;;7.27;;
4595;SDS011;2310;49.978;8.742;2023-05-25T17:14:48;11.93;;;8.70;;
4595;SDS011;2310;49.978;8.742;2023-05-25T17:18:49;11.60;;;7.70;;
4595;SDS011;2310;49.978;8.742;2023-05-25T17:22:54;11.20;;;7.13;;
4595;SDS011;2310;49.978;8.742;2023-05-25T17:26:56;11.10;;;7.80;;
4595;SDS011;2310;49.978;8.742;2023-05-25T17:30:57;10.73;;;7.30;;
4595;SDS011;2310;49.978;8.742;2023-05-25T17:35:02;10.50;;;7.90;;
4595;SDS011;2310;49.978;8.742;2023-05-25T17:39:07;8.50;;;7.30;;
4595;SDS011;2310;49.978;8.742;2023-05-25T17:43:08;10.33;;;7.50;;
4595;SDS011;2310;49.978;8.742;2023-05-25T17:47:09;9.80;;;6.57;;
4595;SDS011;2310;49.978;8.742;2023-05-25T17:51:12;9.33;;;7.67;;
4595;SDS011;2310;49.978;8.742;2023-05-25T17:55:13;9.50;;;8.50;;
4595;SDS011;2310;49.978;8.742;2023-05-25T17:59:14;9.90;;;7.90;;
4595;SDS011;2310;49.978;8.742;2023-05-25T18:03:16;12.20;;;7.50;;
4595;SDS011;2310;49.978;8.742;2023-05-25T18:07:19;13.63;;;6.97;;
4595;SDS011;2310;49.978;8.742;2023-05-25T18:11:22;9.83;;;7.70;;
4595;SDS011;2310;49.978;8.742;2023-05-25T18:15:24;12.90;;;8.60;;
4595;SDS011;2310;49.978;8.742;2023-05-25T18:19:25;9.67;;;7.40;;
4595;SDS011;2310;49.978;8.742;2023-05-25T18:23:26;9.53;;;7.03;;
4595;SDS011;2310;49.978;8.742;2023-05-25T18:27:28;10.20;;;7.40;;
4595;SDS011;2310;49.978;8.742;2023-05-25T18:31:29;9.93;;;8.13;;
4595;SDS011;2310;49.978;8.742;2023-05-25T18:35:33;12.27;;;6.70;;
4595;SDS011;2310;49.978;8.742;2023-05-25T18:39:34;9.30;;;7.90;;
4595;SDS011;2310;49.978;8.742;2023-05-25T18:43:35;12.43;;;7.50;;
4595;SDS011;2310;49.978;8.742;2023-05-25T18:47:36;9.53;;;6.80;;
4595;SDS011;2310;49.978;8.742;2023-05-25T18:51:38;9.83;;;7.30;;
4595;SDS011;2310;49.978;8.742;2023-05-25T18:55:40;10.47;;;7.50;;
4595;SDS011;2310;49.978;8.742;2023-05-25T18:59:41;11.43;;;7.43;;
4595;SDS011;2310;49.978;8.742;2023-05-25T19:03:43;15.13;;;8.00;;
4595;SDS011;2310;49.978;8.742;2023-05-25T19:07:44;11.00;;;7.43;;
4595;SDS011;2310;49.978;8.742;2023-05-25T19:11:48;11.67;;;7.77;;
4595;SDS011;2310;49.978;8.742;2023-05-25T19:15:50;10.20;;;7.60;;
4595;SDS011;2310;49.978;8.742;2023-05-25T19:19:51;10.17;;;7.37;;
4595;SDS011;2310;49.978;8.742;2023-05-25T19:23:52;12.83;;;7.53;;
4595;SDS011;2310;49.978;8.742;2023-05-25T19:27:54;8.97;;;6.60;;
4595;SDS011;2310;49.978;8.742;2023-05-25T19:31:55;9.43;;;7.70;;
4595;SDS011;2310;49.978;8.742;2023-05-25T19:35:56;11.23;;;6.80;;
4595;SDS011;2310;49.978;8.742;2023-05-25T19:39:58;12.80;;;7.47;;
4595;SDS011;2310;49.978;8.742;2023-05-25T19:43:59;13.30;;;7.67;;
4595;SDS011;2310;49.978;8.742;2023-05-25T19:48:00;10.80;;;6.90;;
4595;SDS011;2310;49.978;8.742;2023-05-25T19:52:02;11.50;;;7.00;;
4595;SDS011;2310;49.978;8.742;2023-05-25T19:56:03;7.77;;;6.43;;
4595;SDS011;2310;49.978;8.742;2023-05-25T20:00:05;8.50;;;6.93;;
4595;SDS011;2310;49.978;8.742;2023-05-25T20:04:10;20.40;;;8.83;;
4595;SDS011;2310;49.978;8.742;2023-05-25T20:08:11;9.33;;;6.20;;
4595;SDS011;2310;49.978;8.742;2023-05-25T20:12:12;10.50;;;7.27;;
4595;SDS011;2310;49.978;8.742;2023-05-25T20:16:15;14.43;;;7.50;;
4595;SDS011;2310;49.978;8.742;2023-05-25T20:20:17;8.93;;;7.50;;
4595;SDS011;2310;49.978;8.742;2023-05-25T20:24:18;17.90;;;7.10;;
4595;SDS011;2310;49.978;8.742;2023-05-25T20:28:19;14.67;;;8.03;;
4595;SDS011;2310;49.978;8.742;2023-05-25T20:32:20;10.73;;;6.23;;
4595;SDS011;2310;49.978;8.742;2023-05-25T20:36:22;15.70;;;7.03;;
4595;SDS011;2310;49.978;8.742;2023-05-25T20:40:23;11.27;;;7.27;;
4595;SDS011;2310;49.978;8.742;2023-05-25T20:44:26;13.87;;;7.97;;
4595;SDS011;2310;49.978;8.742;2023-05-25T20:48:27;11.40;;;7.70;;
4595;SDS011;2310;49.978;8.742;2023-05-25T20:52:28;9.87;;;7.23;;
4595;SDS011;2310;49.978;8.742;2023-05-25T20:56:32;14.67;;;7.43;;
4595;SDS011;2310;49.978;8.742;2023-05-25T21:00:34;10.20;;;6.70;;
4595;SDS011;2310;49.978;8.742;2023-05-25T21:04:35;10.50;;;6.70;;
4595;SDS011;2310;49.978;8.742;2023-05-25T21:08:36;11.37;;;7.10;;
4595;SDS011;2310;49.978;8.742;2023-05-25T21:12:37;7.77;;;6.10;;
4595;SDS011;2310;49.978;8.742;2023-05-25T21:16:38;8.03;;;6.73;;
4595;SDS011;2310;49.978;8.742;2023-05-25T21:20:40;11.47;;;7.20;;
4595;SDS011;2310;49.978;8.742;2023-05-25T21:24:41;11.60;;;7.90;;
4595;SDS011;2310;49.978;8.742;2023-05-25T21:28:43;10.80;;;8.17;;
4595;SDS011;2310;49.978;8.742;2023-05-25T21:32:44;11.20;;;7.83;;
4595;SDS011;2310;49.978;8.742;2023-05-25T21:36:46;13.43;;;7.97;;
4595;SDS011;2310;49.978;8.742;2023-05-25T21:40:47;15.10;;;8.53;;
4595;SDS011;2310;49.978;8.742;2023-05-25T21:44:48;12.20;;;7.97;;
4595;SDS011;2310;49.978;8.742;2023-05-25T21:48:50;18.60;;;8.20;;
4595;SDS011;2310;49.978;8.742;2023-05-25T21:52:51;11.23;;;8.60;;
4595;SDS011;2310;49.978;8.742;2023-05-25T21:56:52;11.07;;;8.90;;
4595;SDS011;2310;49.978;8.742;2023-05-25T22:00:54;13.57;;;8.27;;
4595;SDS011;2310;49.978;8.742;2023-05-25T22:04:56;11.93;;;8.50;;
4595;SDS011;2310;49.978;8.742;2023-05-25T22:08:57;16.00;;;10.77;;
4595;SDS011;2310;49.978;8.742;2023-05-25T22:12:59;14.17;;;9.53;;
4595;SDS011;2310;49.978;8.742;2023-05-25T22:17:01;15.00;;;10.30;;
4595;SDS011;2310;49.978;8.742;2023-05-25T22:21:02;14.53;;;10.53;;
4595;SDS011;2310;49.978;8.742;2023-05-25T22:25:04;13.70;;;9.30;;
4595;SDS011;2310;49.978;8.742;2023-05-25T22:29:05;14.63;;;10.67;;
4595;SDS011;2310;49.978;8.742;2023-05-25T22:33:07;17.80;;;10.80;;
4595;SDS011;2310;49.978;8.742;2023-05-25T22:37:08;15.80;;;9.77;;
4595;SDS011;2310;49.978;8.742;2023-05-25T22:41:11;15.93;;;9.70;;
4595;SDS011;2310;49.978;8.742;2023-05-25T22:45:13;13.03;;;10.23;;
4595;SDS011;2310;49.978;8.742;2023-05-25T22:49:14;13.77;;;9.40;;
4595;SDS011;2310;49.978;8.742;2023-05-25T22:53:16;14.00;;;10.07;;
4595;SDS011;2310;49.978;8.742;2023-05-25T22:57:18;14.30;;;10.63;;
4595;SDS011;2310;49.978;8.742;2023-05-25T23:01:19;18.50;;;11.27;;
4595;SDS011;2310;49.978;8.742;2023-05-25T23:05:20;18.03;;;9.07;;
4595;SDS011;2310;49.978;8.742;2023-05-25T23:09:22;11.73;;;10.33;;
4595;SDS011;2310;49.978;8.742;2023-05-25T23:13:23;11.73;;;10.20;;
4595;SDS011;2310;49.978;8.742;2023-05-25T23:17:24;13.30;;;10.57;;
4595;SDS011;2310;49.978;8.742;2023-05-25T23:21:25;13.83;;;10.77;;
4595;SDS011;2310;49.978;8.742;2023-05-25T23:25:27;15.30;;;10.70;;
4595;SDS011;2310;49.978;8.742;2023-05-25T23:29:28;11.50;;;9.00;;
4595;SDS011;2310;49.978;8.742;2023-05-25T23:33:29;13.97;;;11.00;;
4595;SDS011;2310;49.978;8.742;2023-05-25T23:37:30;14.37;;;10.33;;
4595;SDS011;2310;49.978;8.742;2023-05-25T23:41:31;13.63;;;10.20;;
4595;SDS011;2310;49.978;8.742;2023-05-25T23:45:33;13.23;;;10.13;;
4595;SDS011;2310;49.978;8.742;2023-05-25T23:49:34;16.43;;;11.13;;
4595;SDS011;2310;49.978;8.742;2023-05-25T23:53:36;12.10;;;9.97;;
4595;SDS011;2310;49.978;8.742;2023-05-25T23:57:38;14.63;;;10.67;;
